createdAt,value
2022-12-08T00:01:16.909Z,99963.30
2022-12-08T00:03:44.185Z,99970.60
2022-12-08T00:06:46.739Z,99973.79
2022-12-08T00:09:22.263Z,99982.84
2022-12-08T00:12:01.368Z,99984.54
2022-12-08T00:14:33.951Z,99983.39
2022-12-08T00:17:02.505Z,99981.39
2022-12-08T00:19:30.229Z,99978.51
2022-12-08T00:21:57.449Z,99977.06
2022-12-08T00:24:25.714Z,99977.98
2022-12-08T00:26:52.618Z,99984.95
2022-12-08T00:29:19.393Z,99984.92
2022-12-08T00:31:47.058Z,99986.14
2022-12-08T00:34:15.688Z,99986.08
2022-12-08T00:36:42.933Z,99985.59
2022-12-08T00:39:11.928Z,99985.95
2022-12-08T00:41:57.162Z,99985.51
2022-12-08T00:44:24.927Z,99989.45
2022-12-08T00:46:51.821Z,99992.04
2022-12-08T00:49:19.790Z,99995.23
2022-12-08T00:51:46.966Z,99995.67
2022-12-08T00:54:13.803Z,99992.27
2022-12-08T00:56:40.673Z,99999.55
2022-12-08T00:59:07.920Z,100003.28
2022-12-08T01:01:35.370Z,100005.17
2022-12-08T01:04:07.736Z,100002.34
2022-12-08T01:06:35.527Z,100002.80
2022-12-08T01:09:04.492Z,100002.59
2022-12-08T01:11:32.265Z,100001.95
2022-12-08T01:13:58.997Z,100001.38
2022-12-08T01:16:29.263Z,99998.06
2022-12-08T01:18:57.313Z,99993.33
2022-12-08T01:21:24.841Z,99988.78
2022-12-08T01:23:51.753Z,99988.95
2022-12-08T01:26:19.227Z,99986.89
2022-12-08T01:28:47.319Z,99988.01
2022-12-08T01:31:20.714Z,99989.48
2022-12-08T01:33:48.294Z,99987.55
2022-12-08T01:36:29.923Z,99985.44
2022-12-08T01:38:59.833Z,99982.95
2022-12-08T01:41:31.435Z,99988.21
2022-12-08T01:44:00.417Z,99991.95
2022-12-08T01:46:29.874Z,99994.16
2022-12-08T01:49:05.035Z,99996.27
2022-12-08T01:51:36.355Z,99997.84
2022-12-08T01:54:06.196Z,99997.21
2022-12-08T01:56:43.607Z,99999.84
2022-12-08T01:59:11.910Z,100001.58
2022-12-08T02:01:38.896Z,99993.41
2022-12-08T02:04:06.280Z,99993.48
2022-12-08T02:06:38.399Z,99991.69
2022-12-08T02:09:06.311Z,99992.02
2022-12-08T02:11:33.565Z,99989.11
2022-12-08T02:14:03.732Z,99990.92
2022-12-08T02:16:48.805Z,99992.73
2022-12-08T02:19:33.760Z,99990.59
2022-12-08T02:22:28.347Z,99986.98
2022-12-08T02:25:13.737Z,99988.76
2022-12-08T02:27:58.840Z,99989.35
2022-12-08T02:30:31.398Z,99994.14
2022-12-08T02:33:16.426Z,99990.10
2022-12-08T02:35:52.214Z,99991.26
2022-12-08T02:38:44.203Z,99988.20
2022-12-08T02:41:37.665Z,99988.91
2022-12-08T02:44:55.531Z,99989.73
2022-12-08T02:47:24.594Z,99995.59
2022-12-08T02:49:51.349Z,99999.07
2022-12-08T02:52:18.113Z,100005.30
2022-12-08T02:54:49.814Z,100005.20
2022-12-08T02:57:35.019Z,100011.73
2022-12-08T03:00:13.670Z,100008.91
2022-12-08T03:02:43.371Z,100012.04
2022-12-08T03:05:19.360Z,100015.56
2022-12-08T03:07:58.515Z,100019.42
2022-12-08T03:10:29.215Z,100018.46
2022-12-08T03:13:19.372Z,100023.66
2022-12-08T03:15:49.409Z,100029.03
2022-12-08T03:18:20.039Z,100031.03
2022-12-08T03:20:48.571Z,100031.86
2022-12-08T03:23:18.466Z,100032.90
2022-12-08T03:25:59.970Z,100034.80
2022-12-08T03:28:27.113Z,100036.30
2022-12-08T03:30:58.518Z,100043.13
2022-12-08T03:33:31.616Z,100044.74
2022-12-08T03:36:00.910Z,100043.80
2022-12-08T03:38:37.482Z,100043.42
2022-12-08T03:41:19.777Z,100039.77
2022-12-08T03:43:53.186Z,100038.73
2022-12-08T03:48:49.265Z,100039.77
2022-12-08T03:51:16.584Z,100044.84
2022-12-08T03:53:44.340Z,100050.23
2022-12-08T03:56:32.632Z,100052.50
2022-12-08T03:58:59.850Z,100052.78
2022-12-08T04:01:27.143Z,100050.81
2022-12-08T04:03:54.066Z,100046.92
2022-12-08T04:06:22.108Z,100048.33
2022-12-08T04:08:49.994Z,100047.86
2022-12-08T04:11:17.763Z,100049.09
2022-12-08T04:13:44.781Z,100045.94
2022-12-08T04:16:24.390Z,100044.05
2022-12-08T04:18:51.334Z,100043.18
2022-12-08T04:21:18.254Z,100040.49
2022-12-08T04:23:45.392Z,100040.23
2022-12-08T04:26:13.064Z,100036.75
2022-12-08T04:28:39.888Z,100033.26
2022-12-08T04:31:07.245Z,100033.89
2022-12-08T04:33:34.905Z,100034.00
2022-12-08T04:36:03.282Z,100035.98
2022-12-08T04:38:30.377Z,100035.66
2022-12-08T04:40:57.183Z,100030.35
2022-12-08T04:43:24.081Z,100027.09
2022-12-08T04:45:50.945Z,100026.73
2022-12-08T04:48:17.758Z,100026.83
2022-12-08T04:50:45.921Z,100027.92
2022-12-08T04:53:14.265Z,100026.56
2022-12-08T04:55:43.645Z,100029.48
2022-12-08T04:58:15.560Z,100029.69
2022-12-08T05:00:43.242Z,100030.06
2022-12-08T05:03:10.984Z,100036.45
2022-12-08T05:05:38.190Z,100031.92
2022-12-08T05:08:05.663Z,100027.69
2022-12-08T05:10:32.845Z,100031.52
2022-12-08T05:13:00.424Z,100033.01
2022-12-08T06:20:27.225Z,100111.59
2022-12-08T06:22:55.110Z,100112.95
2022-12-08T06:25:22.704Z,100117.44
2022-12-08T06:27:49.499Z,100123.81
2022-12-08T06:30:16.804Z,100129.05
2022-12-08T06:32:43.798Z,100131.72
2022-12-08T06:35:10.509Z,100132.69
2022-12-08T06:37:37.289Z,100132.60
2022-12-08T06:40:04.656Z,100135.36
2022-12-08T06:42:43.768Z,100139.35
2022-12-08T06:45:13.263Z,100141.95
2022-12-08T06:47:40.359Z,100141.63
2022-12-08T06:50:08.787Z,100144.43
2022-12-08T06:52:40.871Z,100143.27
2022-12-08T06:55:29.194Z,100142.59
2022-12-08T06:57:59.541Z,100138.36
2022-12-08T07:00:26.273Z,100136.75
2022-12-08T07:16:26.562Z,100144.77
2022-12-08T07:18:54.774Z,100152.55
2022-12-08T07:21:22.923Z,100154.02
2022-12-08T07:23:56.038Z,100159.59
2022-12-08T07:26:27.137Z,100159.89
2022-12-08T07:28:55.353Z,100164.02
2022-12-08T07:31:25.606Z,100160.73
2022-12-08T07:33:54.394Z,100165.80
2022-12-08T07:36:23.046Z,100165.67
2022-12-08T07:38:53.598Z,100165.77
2022-12-08T07:41:24.285Z,100165.76
2022-12-08T07:43:53.980Z,100164.15
2022-12-08T07:46:24.352Z,100165.25
2022-12-08T07:48:54.124Z,100168.38
2022-12-08T07:51:22.296Z,100170.82
2022-12-08T07:53:54.697Z,100168.55
2022-12-08T07:56:23.649Z,100172.62
2022-12-08T07:58:51.897Z,100175.03
2022-12-08T08:01:29.487Z,100176.60
2022-12-08T08:04:02.003Z,100186.20
2022-12-08T08:06:31.753Z,100185.67
2022-12-08T08:09:00.594Z,100183.55
2022-12-08T08:11:29.134Z,100191.98
2022-12-08T08:13:58.260Z,100197.27
2022-12-08T08:16:26.595Z,100194.61
2022-12-08T08:18:54.969Z,100194.83
2022-12-08T08:21:44.905Z,100195.41
2022-12-08T08:24:11.628Z,100192.63
2022-12-08T08:26:39.749Z,100190.09
2022-12-08T08:29:07.890Z,100192.93
2022-12-08T08:31:36.158Z,100194.15
2022-12-08T08:34:06.588Z,100197.00
2022-12-08T08:36:35.941Z,100199.52
2022-12-08T08:39:04.545Z,100196.73
2022-12-08T08:41:33.216Z,100198.73
2022-12-08T08:44:01.587Z,100194.80
2022-12-08T08:46:29.893Z,100194.46
2022-12-08T08:48:58.358Z,100188.48
2022-12-08T08:51:26.506Z,100188.66
2022-12-08T08:53:54.657Z,100188.52
2022-12-08T08:56:23.073Z,100188.02
2022-12-08T08:58:53.356Z,100186.61
2022-12-08T09:01:25.742Z,100180.26
2022-12-08T09:03:54.986Z,100176.52
2022-12-08T09:06:24.505Z,100176.23
2022-12-08T09:08:52.753Z,100182.17
2022-12-08T09:11:20.984Z,100180.79
2022-12-08T09:13:51.236Z,100181.79
2022-12-08T09:16:19.554Z,100175.21
2022-12-08T09:18:49.667Z,100174.73
2022-12-08T09:21:23.030Z,100170.13
2022-12-08T09:23:56.450Z,100177.61
2022-12-08T09:26:25.814Z,100179.77
2022-12-08T09:28:55.761Z,100179.81
2022-12-08T09:31:24.809Z,100180.15
2022-12-08T09:33:53.042Z,100180.46
2022-12-08T09:36:21.980Z,100175.63
2022-12-08T09:38:51.278Z,100174.54
2022-12-08T09:41:43.320Z,100168.70
2022-12-08T09:44:57.554Z,100168.89
2022-12-08T09:47:58.442Z,100161.50
2022-12-08T09:50:39.685Z,100156.27
2022-12-08T09:53:30.694Z,100153.64
2022-12-08T09:56:06.007Z,100160.91
2022-12-08T09:58:56.496Z,100168.66
2022-12-08T10:01:29.825Z,100167.48
2022-12-08T10:03:58.528Z,100170.30
2022-12-08T10:06:43.676Z,100172.02
2022-12-08T10:09:32.037Z,100167.76
2022-12-08T10:12:20.388Z,100166.50
2022-12-08T10:15:04.057Z,100166.21
2022-12-08T10:17:36.271Z,100162.47
2022-12-08T10:20:19.135Z,100159.63
2022-12-08T10:22:53.323Z,100151.41
2022-12-08T10:25:23.613Z,100149.70
2022-12-08T10:27:54.490Z,100147.29
2022-12-08T10:30:22.696Z,100141.55
2022-12-08T10:32:53.622Z,100139.13
2022-12-08T10:35:23.507Z,100140.20
2022-12-08T10:37:58.166Z,100138.31
2022-12-08T10:40:39.248Z,100140.14
2022-12-08T10:43:17.802Z,100141.57
2022-12-08T10:45:46.241Z,100140.77
2022-12-08T10:48:22.554Z,100143.73
2022-12-08T10:50:50.731Z,100139.28
2022-12-08T10:53:26.377Z,100144.83
2022-12-08T10:56:14.498Z,100145.68
2022-12-08T10:58:45.078Z,100149.52
2022-12-08T11:01:27.892Z,100154.06
2022-12-08T11:04:12.794Z,100155.75
2022-12-08T11:06:42.023Z,100153.50
2022-12-08T11:09:15.682Z,100156.16
2022-12-08T11:12:00.694Z,100153.23
2022-12-08T11:14:32.394Z,100152.39
2022-12-08T11:17:09.369Z,100146.04
2022-12-08T11:19:43.527Z,100141.46
2022-12-08T11:22:42.150Z,100136.50
2022-12-08T11:25:12.236Z,100135.95
2022-12-08T11:27:46.272Z,100130.55
2022-12-08T11:30:15.138Z,100123.45
2022-12-08T11:32:45.664Z,100123.20
2022-12-08T11:35:23.188Z,100116.09
2022-12-08T11:37:56.532Z,100110.87
2022-12-08T11:40:43.536Z,100109.16
2022-12-08T11:43:29.511Z,100114.58
2022-12-08T11:46:25.970Z,100122.95
2022-12-08T11:49:07.225Z,100126.17
2022-12-08T11:51:47.463Z,100125.09
2022-12-08T11:54:26.926Z,100125.77
2022-12-08T11:56:57.729Z,100123.52
2022-12-08T11:59:41.972Z,100119.11
2022-12-08T12:02:29.243Z,100118.29
2022-12-08T12:06:08.698Z,100113.81
2022-12-08T12:08:37.788Z,100112.66
2022-12-08T12:11:49.382Z,100112.82
2022-12-08T12:14:55.203Z,100111.63
2022-12-08T12:17:46.604Z,100106.52
2022-12-08T12:20:33.327Z,100103.14
2022-12-08T12:23:07.125Z,100103.80
2022-12-08T12:25:37.242Z,100104.98
2022-12-08T12:28:09.577Z,100105.14
2022-12-08T12:30:52.587Z,100112.38
2022-12-08T12:33:22.976Z,100111.60
2022-12-08T12:35:52.394Z,100111.08
2022-12-08T12:38:49.284Z,100103.68
2022-12-08T12:41:28.323Z,100101.38
2022-12-08T12:44:14.979Z,100102.11
2022-12-08T12:46:49.066Z,100104.87
2022-12-08T12:49:40.784Z,100101.45
2022-12-08T12:52:21.389Z,100104.77
2022-12-08T12:54:49.882Z,100099.15
2022-12-08T12:57:24.299Z,100098.77
2022-12-08T13:00:05.345Z,100105.19
2022-12-08T13:02:36.601Z,100101.16
2022-12-08T13:05:34.308Z,100099.67
2022-12-08T13:08:08.021Z,100095.77
2022-12-08T13:10:39.798Z,100096.15
2022-12-08T13:13:12.398Z,100098.64
2022-12-08T13:15:48.863Z,100098.23
2022-12-08T13:18:19.715Z,100093.64
2022-12-08T13:21:11.801Z,100090.53
2022-12-08T13:24:11.353Z,100091.91
2022-12-08T13:27:11.589Z,100089.04
2022-12-08T13:29:40.259Z,100087.10
2022-12-08T13:32:08.480Z,100088.55
2022-12-08T13:34:53.863Z,100093.25
2022-12-08T13:37:27.563Z,100091.05
2022-12-08T13:40:00.991Z,100088.65
2022-12-08T13:42:56.687Z,100083.63
2022-12-08T13:46:18.218Z,100090.14
2022-12-08T13:48:44.619Z,100091.63
2022-12-08T13:55:58.814Z,100093.11
2022-12-08T13:57:32.863Z,100091.91
2022-12-08T14:00:05.691Z,100098.48
2022-12-08T14:02:48.554Z,100099.89
2022-12-08T14:05:29.766Z,100097.77
2022-12-08T14:09:00.132Z,100098.67
2022-12-08T14:11:35.529Z,100100.27
2022-12-08T14:14:05.180Z,100098.58
2022-12-08T14:16:37.882Z,100093.85
2022-12-08T14:19:21.555Z,100092.89
2022-12-08T14:22:14.143Z,100096.33
2022-12-08T14:24:54.085Z,100098.07
2022-12-08T14:27:24.957Z,100097.21
2022-12-08T14:30:00.665Z,100101.95
2022-12-08T14:32:42.052Z,100101.54
2022-12-08T14:35:10.150Z,100097.36
2022-12-08T14:37:41.124Z,100097.41
2022-12-08T14:40:22.721Z,100092.80
2022-12-08T18:23:08.002Z,100077.01
2022-12-08T18:25:36.874Z,100075.95
2022-12-08T18:28:03.922Z,100069.04
2022-12-08T18:30:30.811Z,100070.60
2022-12-08T18:32:57.710Z,100065.79
2022-12-08T18:35:26.561Z,100071.14
2022-12-08T18:37:53.432Z,100080.29
2022-12-08T18:40:21.370Z,100082.09
2022-12-08T18:42:48.162Z,100084.25
2022-12-08T18:45:20.771Z,100081.90
2022-12-08T18:47:49.663Z,100075.23
2022-12-08T18:50:17.310Z,100065.48
2022-12-08T18:52:45.600Z,100062.92
2022-12-08T18:55:14.619Z,100064.91
2022-12-08T18:57:44.807Z,100066.20
2022-12-08T19:00:15.087Z,100069.42
2022-12-08T19:02:42.631Z,100077.44
2022-12-08T19:05:11.738Z,100079.20
2022-12-08T19:07:38.701Z,100070.52
2022-12-08T19:10:06.562Z,100066.44
2022-12-08T19:12:33.702Z,100073.67
2022-12-08T19:15:00.590Z,100082.25
2022-12-08T19:17:29.175Z,100083.27
2022-12-08T19:19:56.137Z,100075.71
2022-12-08T19:22:22.941Z,100063.98
2022-12-08T19:24:49.723Z,100056.50
2022-12-08T19:27:16.541Z,100057.27
2022-12-08T19:29:43.350Z,100064.83
2022-12-08T19:32:10.258Z,100072.18
2022-12-08T19:34:37.298Z,100072.54
2022-12-08T19:37:04.075Z,100075.93
2022-12-08T19:39:49.382Z,100079.48
2022-12-08T19:42:37.433Z,100083.58
2022-12-08T19:45:11.410Z,100071.58
2022-12-08T19:47:39.069Z,100063.39
2022-12-08T19:50:26.744Z,100071.26
2022-12-08T19:52:53.884Z,100077.11
2022-12-08T19:55:22.943Z,100064.02
2022-12-08T19:57:51.091Z,100054.21
2022-12-08T20:00:19.366Z,100057.97
2022-12-08T20:02:46.905Z,100062.16
2022-12-08T20:05:14.710Z,100058.13
2022-12-08T20:07:41.746Z,100050.29
2022-12-08T20:10:17.484Z,100042.13
2022-12-08T20:12:44.442Z,100039.64
2022-12-08T20:15:11.992Z,100039.11
2022-12-08T20:17:38.925Z,100034.77
2022-12-08T20:20:07.607Z,100031.48
2022-12-08T20:22:35.184Z,100027.18
2022-12-08T20:25:02.546Z,100017.25
2022-12-08T20:27:29.343Z,100015.92
2022-12-08T20:29:56.169Z,100009.22
2022-12-08T20:32:23.167Z,100009.56
2022-12-08T20:34:50.063Z,100011.07
2022-12-08T20:37:16.783Z,100009.30
2022-12-08T20:39:43.866Z,100001.38
2022-12-08T20:42:13.949Z,99998.41
2022-12-08T20:44:43.784Z,99996.49
2022-12-08T20:47:11.920Z,99999.38
2022-12-08T20:49:38.715Z,99997.65
2022-12-08T20:52:05.624Z,99998.84
2022-12-08T20:54:32.878Z,100002.17
2022-12-08T20:57:00.846Z,100005.64
2022-12-08T20:59:28.032Z,100010.65
2022-12-08T21:01:55.169Z,100012.16
2022-12-08T21:04:22.828Z,100008.80
2022-12-08T21:06:50.277Z,100003.91
2022-12-08T21:09:17.860Z,99995.95
2022-12-08T21:11:45.067Z,99992.84
2022-12-08T21:14:12.543Z,99988.90
2022-12-08T21:16:39.729Z,99983.05
2022-12-08T21:19:06.725Z,99978.74
2022-12-08T21:21:33.524Z,99979.02
2022-12-08T21:24:00.756Z,99982.63
2022-12-08T21:26:28.199Z,99977.77
2022-12-08T21:28:58.237Z,99973.98
2022-12-08T21:31:26.116Z,99967.06
2022-12-08T21:33:54.456Z,99973.02
2022-12-08T21:36:21.480Z,99977.11
2022-12-08T21:38:48.741Z,99974.79
2022-12-08T21:41:40.159Z,99967.02
2022-12-08T21:44:09.941Z,99962.94
2022-12-08T21:46:37.301Z,99954.93
2022-12-08T21:49:04.775Z,99951.92
2022-12-08T21:51:33.123Z,99947.70
2022-12-08T21:54:00.391Z,99953.27
2022-12-08T21:56:27.459Z,99952.34
2022-12-08T21:58:55.331Z,99946.90
2022-12-08T22:01:22.357Z,99949.92
2022-12-08T22:03:49.423Z,99951.55
2022-12-08T22:06:17.097Z,99958.67
2022-12-08T22:08:44.253Z,99957.45
2022-12-08T22:11:11.818Z,99959.08
2022-12-08T22:13:40.516Z,99960.23
2022-12-08T22:16:11.036Z,99949.19
2022-12-08T22:18:38.248Z,99937.92
2022-12-08T22:21:11.314Z,99930.96
2022-12-08T22:23:38.131Z,99918.17
2022-12-08T22:26:05.287Z,99922.99
2022-12-08T22:28:35.541Z,99912.16
2022-12-08T22:31:10.603Z,99917.83
2022-12-08T22:33:39.084Z,99921.77
2022-12-08T22:36:10.687Z,99911.45
2022-12-08T22:38:37.988Z,99901.11
2022-12-08T22:41:05.630Z,99903.88
2022-12-08T22:43:32.984Z,99908.03
2022-12-08T22:45:59.920Z,99910.09
2022-12-08T22:48:27.009Z,99907.48
2022-12-08T22:51:00.397Z,99909.65
2022-12-08T22:53:27.434Z,99910.45
2022-12-08T22:55:54.595Z,99904.55
2022-12-08T22:58:21.476Z,99905.58
2022-12-08T23:00:48.368Z,99903.27
2022-12-08T23:03:15.673Z,99897.13
2022-12-08T23:05:42.786Z,99889.02
2022-12-08T23:08:14.871Z,99887.40
2022-12-08T23:10:42.822Z,99884.09
2022-12-08T23:13:10.678Z,99881.13
2022-12-08T23:15:38.424Z,99879.21
2022-12-08T23:18:06.337Z,99879.38
2022-12-08T23:20:33.932Z,99873.55
2022-12-08T23:23:00.950Z,99871.16
2022-12-08T23:25:27.697Z,99871.52
2022-12-08T23:27:54.435Z,99877.02
2022-12-08T23:30:21.249Z,99879.41
2022-12-08T23:32:48.112Z,99886.46
2022-12-08T23:35:15.243Z,99885.27
2022-12-08T23:37:42.254Z,99888.15
2022-12-08T23:40:09.715Z,99889.52
2022-12-08T23:42:36.872Z,99887.58
2022-12-08T23:45:04.940Z,99884.96
2022-12-08T23:47:31.842Z,99880.98
2022-12-08T23:49:59.044Z,99878.88
2022-12-08T23:52:25.761Z,99880.72
2022-12-08T23:54:53.953Z,99883.23
2022-12-08T23:57:21.199Z,99882.86
2022-12-08T23:59:48.121Z,99888.11
